createdAt,value
2019-04-21T00:00:54.270Z,40.43
2019-04-21T00:01:52.208Z,40.33
2019-04-21T00:02:50.492Z,40.53
2019-04-21T00:03:53.703Z,40.53
2019-04-21T00:05:06.162Z,40.84
2019-04-21T00:06:13.981Z,39.94
2019-04-21T00:07:10.337Z,40.14
2019-04-21T00:08:22.863Z,40.45
2019-04-21T00:09:12.878Z,40.66
2019-04-21T00:10:14.971Z,40.66
2019-04-21T00:11:20.692Z,40.45
2019-04-21T00:12:12.280Z,40.66
2019-04-21T00:13:02.693Z,40.45
2019-04-21T00:14:03.732Z,40.76
2019-04-21T00:15:02.000Z,40.76
2019-04-21T00:15:54.983Z,41.27
2019-04-21T00:16:56.310Z,41.16
2019-04-21T00:17:56.203Z,41.57
2019-04-21T00:18:58.036Z,41.39
2019-04-21T00:19:49.831Z,41.28
2019-04-21T00:20:52.665Z,41.08
2019-04-21T00:21:55.340Z,41.19
2019-04-21T00:23:06.254Z,41.28
2019-04-21T00:24:05.846Z,41.08
2019-04-21T00:25:07.727Z,41.49
2019-04-21T00:26:01.912Z,41.49
2019-04-21T00:27:06.920Z,41.49
2019-04-21T00:28:09.304Z,41.19
2019-04-21T00:29:16.542Z,41.28
2019-04-21T00:30:12.180Z,41.49
2019-04-21T00:31:08.473Z,41.49
2019-04-21T00:32:08.661Z,41.59
2019-04-21T00:32:59.728Z,42.00
2019-04-21T00:33:51.344Z,41.49
2019-04-21T00:34:56.568Z,42.51
2019-04-21T00:35:59.295Z,41.59
2019-04-21T00:36:59.616Z,41.69
2019-04-21T00:38:13.639Z,42.22
2019-04-21T00:39:26.604Z,42.02
2019-04-21T00:40:09.439Z,42.22
2019-04-21T00:41:13.728Z,42.12
2019-04-21T00:42:11.292Z,41.82
2019-04-21T00:43:13.571Z,42.43
2019-04-21T00:44:07.080Z,42.53
2019-04-21T00:45:01.889Z,42.33
2019-04-21T00:45:59.913Z,42.43
2019-04-21T00:47:01.883Z,42.83
2019-04-21T00:48:14.429Z,43.04
2019-04-21T00:49:06.018Z,43.04
2019-04-21T00:50:20.544Z,42.73
2019-04-21T00:51:29.057Z,43.06
2019-04-21T00:52:24.469Z,42.65
2019-04-21T00:53:16.271Z,42.96
2019-04-21T00:54:21.286Z,42.96
2019-04-21T00:55:23.059Z,42.85
2019-04-21T00:56:15.619Z,42.35
2019-04-21T00:57:11.489Z,42.76
2019-04-21T00:58:19.434Z,43.16
2019-04-21T00:59:13.860Z,43.16
2019-04-21T01:00:11.897Z,43.06
2019-04-21T01:01:07.400Z,43.57
2019-04-21T01:02:09.139Z,43.08
2019-04-21T01:03:09.605Z,43.29
2019-04-21T01:04:13.916Z,43.37
2019-04-21T01:05:18.625Z,43.69
2019-04-21T01:06:09.728Z,43.98
2019-04-21T01:07:13.255Z,43.29
2019-04-21T01:08:09.441Z,44.10
2019-04-21T01:09:09.404Z,43.79
2019-04-21T01:10:05.326Z,44.00
2019-04-21T01:11:12.338Z,44.10
2019-04-21T01:12:08.355Z,43.79
2019-04-21T01:13:16.474Z,44.10
2019-04-21T01:14:12.045Z,43.90
2019-04-21T01:15:18.390Z,44.31
2019-04-21T01:16:17.415Z,44.10
2019-04-21T01:17:14.603Z,44.22
2019-04-21T01:18:09.115Z,44.12
2019-04-21T01:19:06.307Z,44.73
2019-04-21T01:20:01.214Z,44.32
2019-04-21T01:20:49.189Z,44.12
2019-04-21T01:21:48.161Z,44.94
2019-04-21T01:22:48.143Z,44.22
2019-04-21T01:23:48.645Z,44.32
2019-04-21T01:24:57.902Z,45.14
2019-04-21T01:26:01.868Z,45.14
2019-04-21T01:27:02.048Z,45.14
2019-04-21T01:28:05.028Z,44.73
2019-04-21T01:29:09.842Z,44.45
2019-04-21T01:30:14.663Z,44.85
2019-04-21T01:31:08.766Z,44.85
2019-04-21T01:32:12.847Z,44.85
2019-04-21T01:33:17.347Z,44.63
2019-04-21T01:34:10.947Z,44.32
2019-04-21T01:35:10.192Z,44.84
2019-04-21T01:36:10.521Z,44.76
2019-04-21T01:37:04.632Z,44.84
2019-04-21T01:38:14.185Z,44.45
2019-04-21T01:39:14.941Z,44.85
2019-04-21T01:40:16.951Z,45.26
2019-04-21T01:41:13.273Z,44.96
2019-04-21T01:42:08.922Z,44.85
2019-04-21T01:43:08.635Z,45.26
2019-04-21T01:45:09.439Z,45.47
2019-04-21T01:46:05.565Z,45.37
2019-04-21T01:47:07.074Z,45.17
2019-04-21T01:48:05.722Z,45.17
2019-04-21T01:49:03.359Z,44.96
2019-04-21T01:49:59.013Z,45.06
2019-04-21T01:51:05.079Z,45.06
2019-04-21T01:52:21.917Z,45.17
2019-04-21T01:53:10.862Z,44.85
2019-04-21T01:54:18.516Z,45.57
2019-04-21T01:55:15.392Z,44.85
2019-04-21T01:56:11.677Z,44.85
2019-04-21T01:57:10.399Z,44.85
2019-04-21T01:58:02.274Z,44.85
2019-04-21T01:58:57.580Z,44.96
2019-04-21T02:00:00.937Z,44.85
2019-04-21T02:01:03.252Z,44.85
2019-04-21T02:02:14.176Z,45.06
2019-04-21T02:03:31.621Z,44.96
2019-04-21T02:04:07.215Z,44.96
2019-04-21T02:05:17.471Z,44.85
2019-04-21T02:06:15.953Z,44.96
2019-04-21T02:07:09.873Z,45.39
2019-04-21T02:08:09.722Z,45.57
2019-04-21T02:09:06.247Z,45.80
2019-04-21T02:10:11.097Z,45.78
2019-04-21T02:11:12.620Z,46.08
2019-04-21T02:12:08.791Z,45.80
2019-04-21T02:13:08.311Z,46.11
2019-04-21T02:14:11.628Z,46.72
2019-04-21T02:15:11.506Z,46.51
2019-04-21T02:16:11.293Z,46.31
2019-04-21T02:17:15.093Z,46.21
2019-04-21T02:18:08.945Z,46.72
2019-04-21T02:19:08.230Z,46.41
2019-04-21T02:20:03.741Z,46.31
2019-04-21T02:20:59.237Z,46.62
2019-04-21T02:22:01.867Z,46.51
2019-04-21T02:24:17.113Z,46.41
2019-04-21T02:25:26.187Z,46.31
2019-04-21T02:26:09.313Z,46.51
2019-04-21T02:27:14.945Z,46.39
2019-04-21T02:28:14.800Z,46.72
2019-04-21T02:29:18.995Z,46.92
2019-04-21T02:30:18.509Z,46.41
2019-04-21T02:31:20.437Z,47.13
2019-04-21T02:32:14.411Z,46.74
2019-04-21T02:33:32.311Z,46.44
2019-04-21T02:34:16.606Z,46.53
2019-04-21T02:36:49.334Z,46.94
2019-04-21T02:38:23.764Z,47.56
2019-04-21T02:39:20.973Z,47.25
2019-04-21T02:41:13.734Z,47.27
2019-04-21T02:42:22.255Z,48.09
2019-04-21T02:43:18.608Z,47.89
2019-04-21T02:44:23.416Z,47.99
2019-04-21T02:46:27.424Z,48.60
2019-04-21T02:47:31.238Z,48.30
2019-04-21T02:48:22.505Z,48.09
2019-04-21T02:49:29.714Z,48.09
2019-04-21T02:51:19.385Z,48.81
2019-04-21T02:52:31.684Z,48.09
2019-04-21T02:53:27.074Z,48.30
2019-04-21T02:54:34.082Z,48.50
2019-04-21T02:55:13.388Z,48.73
2019-04-21T02:57:18.616Z,49.01
2019-04-21T02:59:34.876Z,48.81
2019-04-21T03:00:23.817Z,48.19
2019-04-21T03:01:25.962Z,48.19
2019-04-21T03:02:25.730Z,48.40
2019-04-21T03:03:26.043Z,48.91
2019-04-21T03:04:30.341Z,48.30
2019-04-21T03:05:21.170Z,48.30
2019-04-21T03:06:17.983Z,48.09
2019-04-21T03:07:19.462Z,48.93
2019-04-21T03:08:32.193Z,48.60
2019-04-21T03:09:29.589Z,49.55
2019-04-21T03:11:12.263Z,49.24
2019-04-21T03:13:25.050Z,48.83
2019-04-21T03:14:33.364Z,49.14
2019-04-21T03:15:23.432Z,48.93
2019-04-21T03:16:23.333Z,49.04
2019-04-21T03:17:21.777Z,49.14
2019-04-21T03:20:28.531Z,49.34
2019-04-21T03:21:22.085Z,49.34
2019-04-21T03:24:29.400Z,49.26
2019-04-21T03:25:34.815Z,49.65
2019-04-21T03:27:35.232Z,49.77
2019-04-21T03:29:24.533Z,50.18
2019-04-21T03:30:33.355Z,49.67
2019-04-21T03:32:57.791Z,49.98
2019-04-21T03:34:02.713Z,50.09
2019-04-21T03:34:57.017Z,50.49
2019-04-21T03:36:43.809Z,50.18
2019-04-21T03:37:23.204Z,51.10
2019-04-21T03:38:22.318Z,50.80
2019-04-21T03:39:21.160Z,49.88
2019-04-21T03:40:16.691Z,50.18
2019-04-21T03:43:20.145Z,50.09
2019-04-21T03:44:24.707Z,50.39
2019-04-21T03:45:25.000Z,50.18
2019-04-21T03:46:18.398Z,50.18
2019-04-21T03:47:22.872Z,50.49
2019-04-21T03:48:18.574Z,49.98
2019-04-21T03:49:28.147Z,50.29
2019-04-21T03:50:22.673Z,50.59
2019-04-21T03:53:22.555Z,50.42
2019-04-21T03:54:22.322Z,50.49
2019-04-21T03:55:47.233Z,51.10
2019-04-21T03:56:46.345Z,50.39
2019-04-21T03:57:38.588Z,50.59
2019-04-21T03:58:32.191Z,50.70
2019-04-21T03:59:12.646Z,50.70
2019-04-21T04:00:33.717Z,51.10
2019-04-21T04:05:23.393Z,50.90
2019-04-21T04:06:22.620Z,50.39
2019-04-21T04:07:23.100Z,50.82
2019-04-21T04:08:31.954Z,50.93
2019-04-21T04:10:26.435Z,50.49
2019-04-21T04:12:12.599Z,50.72
2019-04-21T04:13:19.878Z,50.52
2019-04-21T04:15:22.856Z,50.93
2019-04-21T04:16:19.629Z,50.93
2019-04-21T04:17:20.371Z,51.03
2019-04-21T04:18:29.969Z,51.23
2019-04-21T04:19:30.142Z,51.03
2019-04-21T04:20:24.246Z,52.36
2019-04-21T04:21:30.273Z,51.87
2019-04-21T04:22:20.867Z,51.77
2019-04-21T04:24:24.254Z,52.08
2019-04-21T04:25:19.193Z,51.56
2019-04-21T04:27:36.927Z,52.08
2019-04-21T04:28:19.752Z,51.98
2019-04-21T04:29:19.525Z,52.18
2019-04-21T04:31:25.934Z,52.08
2019-04-21T04:33:34.427Z,52.49
2019-04-21T04:34:21.773Z,52.28
2019-04-21T04:35:21.638Z,52.59
2019-04-21T04:36:30.242Z,52.69
2019-04-21T04:37:23.986Z,52.69
2019-04-21T04:38:22.271Z,52.39
2019-04-21T04:40:23.294Z,52.18
2019-04-21T04:43:19.353Z,52.18
2019-04-21T04:44:33.785Z,52.28
2019-04-21T04:45:25.725Z,52.36
2019-04-21T04:46:17.751Z,52.05
2019-04-21T04:47:20.293Z,52.26
2019-04-21T04:48:11.880Z,52.05
2019-04-21T04:49:34.375Z,52.26
2019-04-21T04:50:26.305Z,52.36
2019-04-21T04:51:22.925Z,52.36
2019-04-21T04:53:20.493Z,51.85
2019-04-21T04:54:19.907Z,52.26
2019-04-21T04:55:23.599Z,51.75
2019-04-21T04:56:25.553Z,52.05
2019-04-21T04:58:22.827Z,51.23
2019-04-21T05:00:28.717Z,50.49
2019-04-21T05:01:26.771Z,52.34
2019-04-21T05:02:28.085Z,51.31
2019-04-21T05:03:33.148Z,51.21
2019-04-21T05:04:20.437Z,51.21
2019-04-21T05:05:19.405Z,50.59
2019-04-21T05:06:30.643Z,50.49
2019-04-21T05:08:34.470Z,50.78
2019-04-21T05:09:13.289Z,51.39
2019-04-21T05:10:17.913Z,50.59
2019-04-21T05:12:11.575Z,50.47
2019-04-21T05:13:24.198Z,50.57
2019-04-21T05:15:14.812Z,50.78
2019-04-21T05:16:24.292Z,50.34
2019-04-21T05:17:24.878Z,50.67
2019-04-21T05:18:13.668Z,50.24
2019-04-21T05:19:18.122Z,49.63
2019-04-21T05:21:28.839Z,50.34
2019-04-21T05:22:17.216Z,49.73
2019-04-21T05:23:10.530Z,50.04
2019-04-21T05:24:10.789Z,50.04
2019-04-21T05:25:06.828Z,50.14
2019-04-21T05:25:59.999Z,49.81
2019-04-21T05:27:02.718Z,49.81
2019-04-21T05:28:00.046Z,49.19
2019-04-21T05:29:00.648Z,49.81
2019-04-21T05:30:07.137Z,49.91
2019-04-21T05:31:15.929Z,49.48
2019-04-21T05:32:09.221Z,50.22
2019-04-21T05:33:09.310Z,49.79
2019-04-21T05:34:09.538Z,49.99
2019-04-21T05:35:08.191Z,49.38
2019-04-21T05:36:10.938Z,49.79
2019-04-21T05:37:07.495Z,50.20
2019-04-21T05:38:06.192Z,49.68
2019-04-21T05:39:06.514Z,49.55
2019-04-21T05:40:00.487Z,48.74
2019-04-21T05:41:00.413Z,48.94
2019-04-21T05:41:53.766Z,49.05
2019-04-21T05:43:07.864Z,49.25
2019-04-21T05:46:13.724Z,49.13
2019-04-21T05:47:18.199Z,48.21
2019-04-21T05:48:17.135Z,48.72
2019-04-21T05:49:05.832Z,49.02
2019-04-21T05:50:06.578Z,48.92
2019-04-21T05:51:02.075Z,47.98
2019-04-21T05:52:02.481Z,48.08
2019-04-21T05:53:08.227Z,48.61
2019-04-21T05:54:19.298Z,48.21
2019-04-21T05:55:09.317Z,48.18
2019-04-21T05:56:09.960Z,48.00
2019-04-21T05:57:05.805Z,47.98
2019-04-21T05:58:08.212Z,48.18
2019-04-21T05:59:07.712Z,48.18
2019-04-21T06:00:08.854Z,48.49
2019-04-21T06:01:18.295Z,48.18
2019-04-21T06:02:18.457Z,47.67
2019-04-21T06:03:10.145Z,47.98
2019-04-21T06:04:14.201Z,48.39
2019-04-21T06:05:20.309Z,48.18
2019-04-21T06:06:19.035Z,47.88
2019-04-21T06:08:08.181Z,46.83
2019-04-21T06:09:13.005Z,46.83
2019-04-21T06:10:08.610Z,47.45
2019-04-21T06:11:12.009Z,47.12
2019-04-21T06:12:08.647Z,46.81
2019-04-21T06:13:15.427Z,47.53
2019-04-21T06:14:08.090Z,46.51
2019-04-21T06:15:07.003Z,46.92
2019-04-21T06:16:07.373Z,47.09
2019-04-21T06:17:09.306Z,46.38
2019-04-21T06:18:13.850Z,46.59
2019-04-21T06:19:07.653Z,46.28
2019-04-21T06:20:07.956Z,46.08
2019-04-21T06:21:21.972Z,45.85
2019-04-21T06:22:10.419Z,46.56
2019-04-21T06:23:12.287Z,46.47
2019-04-21T06:24:03.871Z,45.34
2019-04-21T06:25:31.193Z,45.85
2019-04-21T06:27:11.247Z,46.26
2019-04-21T06:28:11.971Z,46.87
2019-04-21T06:29:08.680Z,46.15
2019-04-21T06:30:03.532Z,46.47
2019-04-21T06:31:14.542Z,46.06
2019-04-21T06:32:59.425Z,45.63
2019-04-21T06:34:08.226Z,45.42
2019-04-21T06:35:21.547Z,45.32
2019-04-21T06:36:23.529Z,45.53
2019-04-21T06:37:32.645Z,45.40
2019-04-21T06:38:16.579Z,45.40
2019-04-21T06:39:27.984Z,45.40
2019-04-21T06:41:13.209Z,45.00
2019-04-21T06:42:09.177Z,44.89
2019-04-21T06:43:19.689Z,44.97
2019-04-21T06:44:12.940Z,44.87
2019-04-21T06:45:32.144Z,44.57
2019-04-21T06:46:10.988Z,45.28
2019-04-21T06:47:17.582Z,44.87
2019-04-21T06:48:11.201Z,45.28
2019-04-21T06:49:24.152Z,44.46
2019-04-21T06:50:09.642Z,45.30
2019-04-21T06:51:10.723Z,44.97
2019-04-21T06:52:18.132Z,44.87
2019-04-21T06:53:03.993Z,44.89
2019-04-21T06:54:09.426Z,45.00
2019-04-21T06:55:09.923Z,45.20
2019-04-21T06:56:15.223Z,44.97
2019-04-21T06:57:10.725Z,45.00
2019-04-21T06:58:07.962Z,45.18
2019-04-21T06:59:06.752Z,44.67
2019-04-21T07:00:10.107Z,44.57
2019-04-21T07:01:10.158Z,44.34
2019-04-21T07:02:21.268Z,45.26
2019-04-21T07:03:15.592Z,44.34
2019-04-21T07:05:17.120Z,44.85
2019-04-21T07:06:07.833Z,43.81
2019-04-21T07:07:05.287Z,43.91
2019-04-21T07:08:23.242Z,43.71
2019-04-21T07:09:17.381Z,43.71
2019-04-21T07:10:12.403Z,44.02
2019-04-21T07:11:08.480Z,43.79
2019-04-21T07:12:05.806Z,44.51
2019-04-21T07:13:03.271Z,44.30
2019-04-21T07:14:25.935Z,43.79
2019-04-21T07:15:04.260Z,43.59
2019-04-21T07:16:10.737Z,43.90
2019-04-21T07:17:08.084Z,43.69
2019-04-21T07:18:04.592Z,43.20
2019-04-21T07:19:13.126Z,43.29
2019-04-21T07:21:09.556Z,43.90
2019-04-21T07:22:14.612Z,43.79
2019-04-21T07:23:13.460Z,43.79
2019-04-21T07:24:17.227Z,43.90
2019-04-21T07:25:08.647Z,43.16
2019-04-21T07:26:02.756Z,42.96
2019-04-21T07:27:08.874Z,43.26
2019-04-21T07:28:02.907Z,43.16
2019-04-21T07:29:07.953Z,43.47
2019-04-21T07:30:20.528Z,42.76
2019-04-21T07:31:11.121Z,42.86
2019-04-21T07:32:20.985Z,43.04
2019-04-21T07:33:21.940Z,43.44
2019-04-21T07:34:07.755Z,42.94
2019-04-21T07:35:11.797Z,43.14
2019-04-21T07:36:01.319Z,43.43
2019-04-21T07:37:06.129Z,42.21
2019-04-21T07:38:02.968Z,42.31
2019-04-21T07:39:03.362Z,42.11
2019-04-21T07:40:03.791Z,42.61
2019-04-21T07:40:59.651Z,42.11
2019-04-21T07:41:59.302Z,42.31
2019-04-21T07:43:03.900Z,42.41
2019-04-21T07:43:59.200Z,42.60
2019-04-21T07:44:59.359Z,42.49
2019-04-21T07:45:58.519Z,41.77
2019-04-21T07:47:01.043Z,41.66
2019-04-21T07:48:05.803Z,41.56
2019-04-21T07:49:06.782Z,41.56
2019-04-21T07:50:07.309Z,41.77
2019-04-21T07:51:09.169Z,41.77
2019-04-21T07:52:04.630Z,42.27
2019-04-21T07:53:08.615Z,41.16
2019-04-21T07:54:13.939Z,41.56
2019-04-21T07:55:21.583Z,41.77
2019-04-21T07:55:49.522Z,41.03
2019-04-21T07:56:52.421Z,41.24
2019-04-21T07:58:02.577Z,40.94
2019-04-21T07:59:05.320Z,40.31
2019-04-21T08:00:15.061Z,40.20
2019-04-21T08:01:07.437Z,40.31
2019-04-21T08:02:01.308Z,40.11
2019-04-21T08:03:21.954Z,40.61
2019-04-21T08:04:20.878Z,40.29
2019-04-21T08:06:02.148Z,40.29
2019-04-21T08:07:05.240Z,40.29
2019-04-21T08:08:08.102Z,39.98
2019-04-21T08:09:07.373Z,40.39
2019-04-21T08:10:02.893Z,40.39
2019-04-21T08:11:07.404Z,39.68
2019-04-21T08:11:57.331Z,39.68
2019-04-21T08:13:00.191Z,38.95
2019-04-21T08:14:03.532Z,38.95
2019-04-21T08:15:09.665Z,39.34
2019-04-21T08:16:07.674Z,39.54
2019-04-21T08:17:02.810Z,38.84
2019-04-21T08:18:04.647Z,38.63
2019-04-21T08:19:07.180Z,38.63
2019-04-21T08:19:59.731Z,39.24
2019-04-21T08:21:05.783Z,39.32
2019-04-21T08:23:09.199Z,38.41
2019-04-21T08:24:00.263Z,38.01
2019-04-21T08:25:03.177Z,38.21
2019-04-21T08:26:04.482Z,38.21
2019-04-21T08:27:11.997Z,37.81
2019-04-21T08:28:05.203Z,38.39
2019-04-21T08:29:12.682Z,39.00
2019-04-21T08:30:05.113Z,37.89
2019-04-21T08:31:09.860Z,37.87
2019-04-21T08:32:11.971Z,38.17
2019-04-21T08:33:23.395Z,37.97
2019-04-21T08:34:07.902Z,37.37
2019-04-21T08:35:20.688Z,37.24
2019-04-21T08:36:20.782Z,36.84
2019-04-21T08:37:03.962Z,37.35
2019-04-21T08:38:02.082Z,37.15
2019-04-21T08:39:08.788Z,37.55
2019-04-21T08:40:12.275Z,37.75
2019-04-21T08:42:07.089Z,36.32
2019-04-21T08:43:01.136Z,37.02
2019-04-21T08:44:01.683Z,37.23
2019-04-21T08:45:10.196Z,36.32
2019-04-21T08:46:08.445Z,36.62
2019-04-21T08:47:07.464Z,36.91
2019-04-21T08:48:04.724Z,37.31
2019-04-21T08:49:04.691Z,36.71
2019-04-21T08:50:00.665Z,36.40
2019-04-21T08:51:14.017Z,36.10
2019-04-21T08:52:32.782Z,35.19
2019-04-21T08:53:19.717Z,35.19
2019-04-21T08:54:09.389Z,35.50
2019-04-21T08:55:03.353Z,35.50
2019-04-21T08:56:09.982Z,35.30
2019-04-21T08:58:30.898Z,35.80
2019-04-21T09:00:07.789Z,36.08
2019-04-21T09:01:15.536Z,34.97
2019-04-21T09:02:02.533Z,34.77
2019-04-21T09:03:06.478Z,35.28
2019-04-21T09:04:21.193Z,34.88
2019-04-21T09:05:06.016Z,35.48
2019-04-21T09:06:07.536Z,35.58
2019-04-21T09:08:04.073Z,34.96
2019-04-21T09:09:05.031Z,34.86
2019-04-21T09:10:06.829Z,35.05
2019-04-21T09:10:59.609Z,34.94
2019-04-21T09:12:04.296Z,35.14
2019-04-21T09:12:59.131Z,34.84
2019-04-21T09:14:01.596Z,34.96
2019-04-21T09:15:01.262Z,34.76
2019-04-21T09:15:58.074Z,34.76
2019-04-21T09:16:58.551Z,34.45
2019-04-21T09:17:58.000Z,34.25
2019-04-21T09:18:56.964Z,35.45
2019-04-21T09:20:07.802Z,33.94
2019-04-21T09:21:06.013Z,34.14
2019-04-21T09:22:00.469Z,34.32
2019-04-21T09:23:00.492Z,33.62
2019-04-21T09:24:10.289Z,33.91
2019-04-21T09:25:04.663Z,33.31
2019-04-21T09:26:05.664Z,33.72
2019-04-21T09:26:58.014Z,33.62
2019-04-21T09:28:01.287Z,33.40
2019-04-21T09:28:52.189Z,32.79
2019-04-21T09:29:51.733Z,33.20
2019-04-21T09:30:52.176Z,33.40
2019-04-21T09:31:47.682Z,32.79
2019-04-21T09:32:42.781Z,32.39
2019-04-21T09:33:48.998Z,31.89
2019-04-21T09:34:45.966Z,31.69
2019-04-21T09:35:50.139Z,32.18
2019-04-21T09:36:49.539Z,32.48
2019-04-21T09:37:50.469Z,32.78
2019-04-21T09:38:49.564Z,32.08
2019-04-21T09:39:48.154Z,32.58
2019-04-21T09:40:48.974Z,31.98
2019-04-21T09:41:44.927Z,32.28
2019-04-21T09:42:53.172Z,32.08
2019-04-21T09:43:49.193Z,31.98
2019-04-21T09:44:45.493Z,32.56
2019-04-21T09:45:43.034Z,32.56
2019-04-21T09:46:49.756Z,32.56
2019-04-21T09:47:52.284Z,31.96
2019-04-21T09:48:52.775Z,31.05
2019-04-21T09:49:43.589Z,31.26
2019-04-21T09:50:43.386Z,31.56
2019-04-21T09:51:43.596Z,31.66
2019-04-21T09:52:49.764Z,30.24
2019-04-21T09:53:48.766Z,30.94
2019-04-21T09:54:54.842Z,30.85
2019-04-21T09:55:51.291Z,31.16
2019-04-21T09:56:51.073Z,30.85
2019-04-21T09:57:50.292Z,30.34
2019-04-21T09:58:48.317Z,30.65
2019-04-21T09:59:49.064Z,30.85
2019-04-21T10:00:56.640Z,30.65
2019-04-21T10:01:55.000Z,30.55
2019-04-21T10:02:53.459Z,30.44
2019-04-21T10:03:48.672Z,30.24
2019-04-21T10:04:43.423Z,30.34
2019-04-21T10:05:42.453Z,30.64
2019-04-21T10:06:43.183Z,30.52
2019-04-21T10:07:44.196Z,30.52
2019-04-21T10:08:42.401Z,29.82
2019-04-21T10:09:43.529Z,30.73
2019-04-21T10:10:42.507Z,31.03
2019-04-21T10:11:43.729Z,29.93
2019-04-21T10:12:43.373Z,29.42
2019-04-21T10:13:42.326Z,29.00
2019-04-21T10:14:42.985Z,29.41
2019-04-21T10:15:42.324Z,29.82
2019-04-21T10:16:42.881Z,29.71
2019-04-21T10:17:42.283Z,29.72
2019-04-21T10:18:42.267Z,29.22
2019-04-21T10:19:42.257Z,30.12
2019-04-21T10:20:42.818Z,30.43
2019-04-21T10:21:42.461Z,30.52
2019-04-21T10:22:42.221Z,30.43
2019-04-21T10:23:42.213Z,29.81
2019-04-21T10:24:42.578Z,30.11
2019-04-21T10:25:42.875Z,29.71
2019-04-21T10:26:43.066Z,29.61
2019-04-21T10:27:43.187Z,30.10
2019-04-21T10:28:43.374Z,30.50
2019-04-21T10:29:44.608Z,29.19
2019-04-21T10:30:42.633Z,29.48
2019-04-21T10:31:42.834Z,28.38
2019-04-21T10:32:42.786Z,29.18
2019-04-21T10:33:42.196Z,28.78
2019-04-21T10:34:43.204Z,29.06
2019-04-21T10:35:43.279Z,28.26
2019-04-21T10:36:42.999Z,28.26
2019-04-21T10:37:53.728Z,28.56
2019-04-21T10:38:47.909Z,28.56
2019-04-21T10:39:43.055Z,29.06
2019-04-21T10:40:43.370Z,29.15
2019-04-21T10:41:42.019Z,28.36
2019-04-21T10:42:42.513Z,27.76
2019-04-21T10:43:43.002Z,28.16
2019-04-21T10:44:43.146Z,28.36
2019-04-21T10:45:43.238Z,29.57
2019-04-21T10:46:42.839Z,28.56
2019-04-21T10:47:43.049Z,27.86
2019-04-21T10:48:43.115Z,27.86
2019-04-21T10:49:42.509Z,29.36
2019-04-21T10:50:43.036Z,28.77
2019-04-21T10:51:43.279Z,29.06
2019-04-21T10:52:42.740Z,29.25
2019-04-21T10:53:42.764Z,29.15
2019-04-21T10:55:05.607Z,28.33
2019-04-21T10:55:56.716Z,28.64
2019-04-21T10:56:44.473Z,29.12
2019-04-21T10:57:42.202Z,28.72
2019-04-21T10:58:42.404Z,27.82
2019-04-21T10:59:46.214Z,27.62
2019-04-21T11:00:44.032Z,27.92
2019-04-21T11:01:42.955Z,27.42
2019-04-21T11:02:43.204Z,27.82
2019-04-21T11:03:42.665Z,26.82
2019-04-21T11:04:43.429Z,26.81
2019-04-21T11:05:42.910Z,25.81
2019-04-21T11:06:42.274Z,27.01
2019-04-21T11:07:57.123Z,26.91
2019-04-21T11:08:46.718Z,26.41
2019-04-21T11:09:44.258Z,26.51
2019-04-21T11:10:49.958Z,26.20
2019-04-21T11:11:44.996Z,26.37
2019-04-21T11:12:44.265Z,25.85
2019-04-21T11:13:41.671Z,24.91
2019-04-21T11:14:56.973Z,23.90
2019-04-21T11:15:41.645Z,23.07
2019-04-21T11:16:43.316Z,23.15
2019-04-21T11:17:43.516Z,23.24
2019-04-21T11:18:42.092Z,22.93
2019-04-21T11:19:41.605Z,22.61
2019-04-21T11:20:42.680Z,22.11
2019-04-21T11:21:42.803Z,21.70
2019-04-21T11:22:41.736Z,21.89
2019-04-21T11:23:41.556Z,21.07
2019-04-21T11:24:42.908Z,20.37
2019-04-21T11:25:42.160Z,20.17
2019-04-21T11:26:42.221Z,20.06
2019-04-21T11:27:42.660Z,19.95
2019-04-21T11:28:42.890Z,19.74
2019-04-21T11:29:41.539Z,19.93
2019-04-21T11:30:42.462Z,20.62
2019-04-21T11:31:41.474Z,20.11
2019-04-21T11:32:43.306Z,19.11
2019-04-21T11:33:42.922Z,19.10
2019-04-21T11:34:41.464Z,18.51
2019-04-21T11:35:41.429Z,18.50
2019-04-21T11:36:41.420Z,18.39
2019-04-21T11:37:42.106Z,18.39
2019-04-21T11:38:58.076Z,18.59
2019-04-21T11:39:51.947Z,18.21
2019-04-21T11:40:43.428Z,17.90
2019-04-21T11:41:41.664Z,18.48
2019-04-21T11:42:41.873Z,18.18
2019-04-21T11:43:41.419Z,17.98
2019-04-21T11:44:41.700Z,17.69
2019-04-21T11:45:42.177Z,18.90
2019-04-21T11:46:42.502Z,18.69
2019-04-21T11:47:42.597Z,18.38
2019-04-21T11:48:42.129Z,18.10
2019-04-21T11:49:41.377Z,18.50
2019-04-21T11:50:41.476Z,17.61
2019-04-21T11:51:41.261Z,18.62
2019-04-21T11:52:41.253Z,18.02
2019-04-21T11:53:41.259Z,18.21
2019-04-21T11:54:42.689Z,18.23
2019-04-21T11:55:44.795Z,19.02
2019-04-21T11:56:43.188Z,18.52
2019-04-21T11:57:44.972Z,17.82
2019-04-21T11:58:42.187Z,18.11
2019-04-21T11:59:41.725Z,17.89
2019-04-21T12:00:42.090Z,17.49
2019-04-21T12:01:41.506Z,16.80
2019-04-21T12:02:41.560Z,17.59
2019-04-21T12:03:41.984Z,17.09
2019-04-21T12:04:41.331Z,16.89
2019-04-21T12:05:41.463Z,16.50
2019-04-21T12:06:44.459Z,16.49
2019-04-21T12:07:43.201Z,17.07
2019-04-21T12:08:45.721Z,16.67
2019-04-21T12:09:42.072Z,16.67
2019-04-21T12:10:41.823Z,16.17
2019-04-21T12:11:41.181Z,16.37
2019-04-21T12:12:41.345Z,16.66
2019-04-21T12:13:42.294Z,16.36
2019-04-21T12:14:41.839Z,16.17
2019-04-21T12:15:41.035Z,15.77
2019-04-21T12:16:41.300Z,16.37
2019-04-21T12:17:41.786Z,16.27
2019-04-21T12:18:45.016Z,17.28
2019-04-21T12:19:41.024Z,16.81
2019-04-21T12:20:40.986Z,17.59
2019-04-21T12:21:54.690Z,17.18
2019-04-21T12:22:43.221Z,17.16
2019-04-21T12:23:40.929Z,16.37
2019-04-21T12:24:40.918Z,15.38
2019-04-21T12:25:41.111Z,15.58
2019-04-21T12:26:42.120Z,16.06
2019-04-21T12:27:41.692Z,16.85
2019-04-21T12:28:41.819Z,15.86
2019-04-21T12:29:41.869Z,14.97
2019-04-21T12:30:41.929Z,15.06
2019-04-21T12:31:41.370Z,14.57
2019-04-21T12:32:42.095Z,14.66
2019-04-21T12:33:42.193Z,14.76
2019-04-21T12:34:41.723Z,14.56
2019-04-21T12:35:41.871Z,14.16
2019-04-21T12:36:42.088Z,13.96
2019-04-21T12:37:40.787Z,14.86
2019-04-21T12:38:48.432Z,14.57
2019-04-21T12:39:43.072Z,14.37
2019-04-21T12:40:42.186Z,14.46
2019-04-21T12:41:40.747Z,13.85
2019-04-21T12:42:42.056Z,14.53
2019-04-21T12:43:40.729Z,15.01
2019-04-21T12:44:41.350Z,13.54
2019-04-21T12:45:41.886Z,13.84
2019-04-21T12:46:40.697Z,13.85
2019-04-21T12:47:41.833Z,14.25
2019-04-21T12:48:41.992Z,14.26
2019-04-21T12:49:41.432Z,13.95
2019-04-21T12:50:41.677Z,13.65
2019-04-21T12:51:41.863Z,14.46
2019-04-21T12:52:41.817Z,14.65
2019-04-21T12:53:41.577Z,13.87
2019-04-21T12:54:41.824Z,14.64
2019-04-21T12:55:44.414Z,14.54
2019-04-21T12:56:41.603Z,14.83
2019-04-21T12:57:41.532Z,13.95
2019-04-21T12:58:41.556Z,13.94
2019-04-21T12:59:40.576Z,14.72
2019-04-21T13:00:40.906Z,13.45
2019-04-21T13:01:41.143Z,13.64
2019-04-21T13:02:40.546Z,13.54
2019-04-21T13:03:41.680Z,13.54
2019-04-21T13:04:41.776Z,12.75
2019-04-21T13:05:40.551Z,13.04
2019-04-21T13:06:41.496Z,13.23
2019-04-21T13:07:41.505Z,12.74
2019-04-21T13:08:49.544Z,11.47
2019-04-21T13:09:42.056Z,12.73
2019-04-21T13:10:40.470Z,13.12
2019-04-21T13:11:41.382Z,12.54
2019-04-21T13:12:41.659Z,13.22
2019-04-21T13:13:41.913Z,12.25
2019-04-21T13:14:40.434Z,13.02
2019-04-21T13:15:40.425Z,12.53
2019-04-21T13:16:41.258Z,12.82
2019-04-21T13:17:43.710Z,13.40
2019-04-21T13:18:41.564Z,12.04
2019-04-21T13:19:41.205Z,12.72
2019-04-21T13:20:40.373Z,12.43
2019-04-21T13:21:40.487Z,12.13
2019-04-21T13:22:41.853Z,12.04
2019-04-21T13:23:41.145Z,11.95
2019-04-21T13:24:40.337Z,12.04
2019-04-21T13:25:41.585Z,12.73
2019-04-21T13:26:48.498Z,12.82
2019-04-21T13:27:42.927Z,12.63
2019-04-21T13:28:40.500Z,12.82
2019-04-21T13:29:40.293Z,12.92
2019-04-21T13:30:40.283Z,12.73
2019-04-21T13:31:40.470Z,12.63
2019-04-21T13:32:40.794Z,13.31
2019-04-21T13:33:40.295Z,13.12
2019-04-21T13:34:40.248Z,11.76
2019-04-21T13:35:41.325Z,12.15
2019-04-21T13:36:41.403Z,13.22
2019-04-21T13:37:41.401Z,12.84
2019-04-21T13:38:50.389Z,12.93
2019-04-21T13:40:20.662Z,11.67
2019-04-21T13:40:59.922Z,12.55
2019-04-21T13:41:53.906Z,12.84
2019-04-21T13:42:47.602Z,12.74
2019-04-21T13:44:03.328Z,12.85
2019-04-21T13:44:41.350Z,12.75
2019-04-21T13:45:41.551Z,12.65
2019-04-21T13:46:40.703Z,13.04
2019-04-21T13:47:40.738Z,13.83
2019-04-21T13:48:40.377Z,14.34
2019-04-21T13:49:41.399Z,13.85
2019-04-21T13:50:41.176Z,13.87